sensor_id;sensor_type;location;lat;lon;timestamp;temperature;humidity
41447;DHT22;27185;52.040;4.490;2022-08-01T00:01:58;21.30;99.90
41447;DHT22;27185;52.040;4.490;2022-08-01T00:04:45;21.30;99.90
41447;DHT22;27185;52.040;4.490;2022-08-01T00:07:31;21.30;99.90
41447;DHT22;27185;52.040;4.490;2022-08-01T00:10:17;21.30;99.90
41447;DHT22;27185;52.040;4.490;2022-08-01T00:13:03;21.30;99.90
41447;DHT22;27185;52.040;4.490;2022-08-01T00:15:48;21.30;99.90
41447;DHT22;27185;52.040;4.490;2022-08-01T00:18:34;21.30;99.90
41447;DHT22;27185;52.040;4.490;2022-08-01T00:21:21;21.30;99.90
41447;DHT22;27185;52.040;4.490;2022-08-01T00:24:06;21.30;99.90
41447;DHT22;27185;52.040;4.490;2022-08-01T00:26:52;21.30;99.90
41447;DHT22;27185;52.040;4.490;2022-08-01T00:29:37;21.30;99.90
41447;DHT22;27185;52.040;4.490;2022-08-01T00:32:23;21.30;99.90
41447;DHT22;27185;52.040;4.490;2022-08-01T00:35:09;21.30;99.90
41447;DHT22;27185;52.040;4.490;2022-08-01T00:37:55;21.30;99.90
41447;DHT22;27185;52.040;4.490;2022-08-01T00:40:41;21.30;99.90
41447;DHT22;27185;52.040;4.490;2022-08-01T00:43:26;21.30;99.90
41447;DHT22;27185;52.040;4.490;2022-08-01T00:46:12;21.30;99.90
41447;DHT22;27185;52.040;4.490;2022-08-01T00:48:58;21.30;99.90
41447;DHT22;27185;52.040;4.490;2022-08-01T00:51:44;21.30;99.90
41447;DHT22;27185;52.040;4.490;2022-08-01T00:54:30;21.20;99.90
41447;DHT22;27185;52.040;4.490;2022-08-01T00:57:16;21.20;99.90
41447;DHT22;27185;52.040;4.490;2022-08-01T01:00:03;21.20;99.90
41447;DHT22;27185;52.040;4.490;2022-08-01T01:02:48;21.20;99.90
41447;DHT22;27185;52.040;4.490;2022-08-01T01:05:44;21.10;99.90
41447;DHT22;27185;52.040;4.490;2022-08-01T01:08:37;21.20;99.90
41447;DHT22;27185;52.040;4.490;2022-08-01T01:11:47;21.10;99.90
41447;DHT22;27185;52.040;4.490;2022-08-01T01:14:42;21.10;99.90
41447;DHT22;27185;52.040;4.490;2022-08-01T01:18:02;21.10;99.90
41447;DHT22;27185;52.040;4.490;2022-08-01T01:24:11;21.00;99.90
41447;DHT22;27185;52.040;4.490;2022-08-01T01:27:10;21.00;99.90
41447;DHT22;27185;52.040;4.490;2022-08-01T01:29:59;21.00;99.90
41447;DHT22;27185;52.040;4.490;2022-08-01T01:32:48;21.00;99.90
41447;DHT22;27185;52.040;4.490;2022-08-01T01:35:38;21.00;99.90
41447;DHT22;27185;52.040;4.490;2022-08-01T01:38:27;20.90;99.90
41447;DHT22;27185;52.040;4.490;2022-08-01T01:41:16;20.90;99.90
41447;DHT22;27185;52.040;4.490;2022-08-01T01:44:04;20.90;99.90
41447;DHT22;27185;52.040;4.490;2022-08-01T01:46:50;20.80;99.90
41447;DHT22;27185;52.040;4.490;2022-08-01T01:49:36;20.80;99.90
41447;DHT22;27185;52.040;4.490;2022-08-01T01:52:24;20.80;99.90
41447;DHT22;27185;52.040;4.490;2022-08-01T01:55:12;20.80;99.90
41447;DHT22;27185;52.040;4.490;2022-08-01T01:57:59;20.70;99.90
41447;DHT22;27185;52.040;4.490;2022-08-01T02:00:46;20.80;99.90
41447;DHT22;27185;52.040;4.490;2022-08-01T02:03:33;20.70;99.90
41447;DHT22;27185;52.040;4.490;2022-08-01T02:06:23;20.70;99.90
41447;DHT22;27185;52.040;4.490;2022-08-01T02:09:09;20.70;99.90
41447;DHT22;27185;52.040;4.490;2022-08-01T02:11:57;20.70;99.90
41447;DHT22;27185;52.040;4.490;2022-08-01T02:14:44;20.70;99.90
41447;DHT22;27185;52.040;4.490;2022-08-01T02:17:31;20.70;99.90
41447;DHT22;27185;52.040;4.490;2022-08-01T02:20:17;20.70;99.90
41447;DHT22;27185;52.040;4.490;2022-08-01T02:23:10;20.60;99.90
41447;DHT22;27185;52.040;4.490;2022-08-01T02:25:57;20.60;99.90
41447;DHT22;27185;52.040;4.490;2022-08-01T02:28:50;20.60;99.90
41447;DHT22;27185;52.040;4.490;2022-08-01T02:31:39;20.60;99.90
41447;DHT22;27185;52.040;4.490;2022-08-01T02:34:29;20.60;99.90
41447;DHT22;27185;52.040;4.490;2022-08-01T02:37:19;20.60;99.90
41447;DHT22;27185;52.040;4.490;2022-08-01T02:40:08;20.60;99.90
41447;DHT22;27185;52.040;4.490;2022-08-01T02:42:56;20.60;99.90
41447;DHT22;27185;52.040;4.490;2022-08-01T02:45:48;20.70;99.90
41447;DHT22;27185;52.040;4.490;2022-08-01T02:48:36;20.60;99.90
41447;DHT22;27185;52.040;4.490;2022-08-01T02:51:25;20.60;99.90
41447;DHT22;27185;52.040;4.490;2022-08-01T02:54:11;20.60;99.90
41447;DHT22;27185;52.040;4.490;2022-08-01T02:56:58;20.60;99.90
41447;DHT22;27185;52.040;4.490;2022-08-01T02:59:44;20.60;99.90
41447;DHT22;27185;52.040;4.490;2022-08-01T03:02:31;20.60;99.90
41447;DHT22;27185;52.040;4.490;2022-08-01T03:05:18;20.60;99.90
41447;DHT22;27185;52.040;4.490;2022-08-01T03:08:07;20.60;99.90
41447;DHT22;27185;52.040;4.490;2022-08-01T03:10:54;20.60;99.90
41447;DHT22;27185;52.040;4.490;2022-08-01T03:13:41;20.60;99.90
41447;DHT22;27185;52.040;4.490;2022-08-01T03:16:30;20.60;99.90
41447;DHT22;27185;52.040;4.490;2022-08-01T03:19:18;20.60;99.90
41447;DHT22;27185;52.040;4.490;2022-08-01T03:22:09;20.60;99.90
41447;DHT22;27185;52.040;4.490;2022-08-01T03:24:57;20.70;99.90
41447;DHT22;27185;52.040;4.490;2022-08-01T03:27:45;20.60;99.90
41447;DHT22;27185;52.040;4.490;2022-08-01T03:30:33;20.70;99.90
41447;DHT22;27185;52.040;4.490;2022-08-01T03:33:21;20.70;99.90
41447;DHT22;27185;52.040;4.490;2022-08-01T03:36:09;20.70;99.90
41447;DHT22;27185;52.040;4.490;2022-08-01T03:38:57;20.70;99.90
41447;DHT22;27185;52.040;4.490;2022-08-01T03:41:56;20.70;99.90
41447;DHT22;27185;52.040;4.490;2022-08-01T03:44:48;20.70;99.90
41447;DHT22;27185;52.040;4.490;2022-08-01T03:47:35;20.80;99.90
41447;DHT22;27185;52.040;4.490;2022-08-01T03:50:22;20.70;99.90
41447;DHT22;27185;52.040;4.490;2022-08-01T03:53:11;20.70;99.90
41447;DHT22;27185;52.040;4.490;2022-08-01T03:55:58;20.80;99.90
41447;DHT22;27185;52.040;4.490;2022-08-01T03:58:46;20.80;99.90
41447;DHT22;27185;52.040;4.490;2022-08-01T04:01:32;20.80;99.90
41447;DHT22;27185;52.040;4.490;2022-08-01T04:04:18;20.80;99.90
41447;DHT22;27185;52.040;4.490;2022-08-01T04:07:04;20.80;99.90
41447;DHT22;27185;52.040;4.490;2022-08-01T04:09:52;20.80;99.90
41447;DHT22;27185;52.040;4.490;2022-08-01T04:12:37;20.80;99.90
41447;DHT22;27185;52.040;4.490;2022-08-01T04:15:23;20.80;99.90
41447;DHT22;27185;52.040;4.490;2022-08-01T04:18:09;20.70;99.90
41447;DHT22;27185;52.040;4.490;2022-08-01T04:20:54;20.70;99.90
41447;DHT22;27185;52.040;4.490;2022-08-01T04:23:41;20.80;99.90
41447;DHT22;27185;52.040;4.490;2022-08-01T04:26:30;20.80;99.90
41447;DHT22;27185;52.040;4.490;2022-08-01T04:29:17;20.80;99.90
41447;DHT22;27185;52.040;4.490;2022-08-01T04:32:06;20.80;99.90
41447;DHT22;27185;52.040;4.490;2022-08-01T04:34:56;20.80;99.90
41447;DHT22;27185;52.040;4.490;2022-08-01T04:37:45;20.80;99.90
41447;DHT22;27185;52.040;4.490;2022-08-01T04:40:34;20.80;99.90
41447;DHT22;27185;52.040;4.490;2022-08-01T04:43:21;20.90;99.90
41447;DHT22;27185;52.040;4.490;2022-08-01T04:46:08;20.90;99.90
41447;DHT22;27185;52.040;4.490;2022-08-01T04:48:54;20.90;99.90
41447;DHT22;27185;52.040;4.490;2022-08-01T04:51:50;20.90;99.90
41447;DHT22;27185;52.040;4.490;2022-08-01T04:54:36;21.00;99.90
41447;DHT22;27185;52.040;4.490;2022-08-01T04:57:24;21.00;99.90
41447;DHT22;27185;52.040;4.490;2022-08-01T05:00:10;21.00;99.90
41447;DHT22;27185;52.040;4.490;2022-08-01T05:02:56;21.00;99.90
41447;DHT22;27185;52.040;4.490;2022-08-01T05:05:41;21.00;99.90
41447;DHT22;27185;52.040;4.490;2022-08-01T05:08:27;21.10;99.90
41447;DHT22;27185;52.040;4.490;2022-08-01T05:11:12;21.10;99.90
41447;DHT22;27185;52.040;4.490;2022-08-01T05:13:58;21.10;99.90
41447;DHT22;27185;52.040;4.490;2022-08-01T05:16:45;21.10;99.90
41447;DHT22;27185;52.040;4.490;2022-08-01T05:19:32;21.10;99.90
41447;DHT22;27185;52.040;4.490;2022-08-01T05:22:17;21.10;99.90
41447;DHT22;27185;52.040;4.490;2022-08-01T05:25:03;21.20;99.90
41447;DHT22;27185;52.040;4.490;2022-08-01T05:27:50;21.20;99.90
41447;DHT22;27185;52.040;4.490;2022-08-01T05:30:35;21.20;99.90
41447;DHT22;27185;52.040;4.490;2022-08-01T05:33:21;21.20;99.90
41447;DHT22;27185;52.040;4.490;2022-08-01T05:36:07;21.30;99.90
41447;DHT22;27185;52.040;4.490;2022-08-01T05:38:52;21.30;99.90
41447;DHT22;27185;52.040;4.490;2022-08-01T05:41:38;21.30;99.90
41447;DHT22;27185;52.040;4.490;2022-08-01T05:44:24;21.30;99.90
41447;DHT22;27185;52.040;4.490;2022-08-01T05:47:10;21.20;99.90
41447;DHT22;27185;52.040;4.490;2022-08-01T05:49:55;21.20;99.90
41447;DHT22;27185;52.040;4.490;2022-08-01T05:52:41;21.10;99.90
41447;DHT22;27185;52.040;4.490;2022-08-01T05:55:26;21.10;99.90
41447;DHT22;27185;52.040;4.490;2022-08-01T05:58:12;21.10;99.90
41447;DHT22;27185;52.040;4.490;2022-08-01T06:00:58;21.10;99.90
41447;DHT22;27185;52.040;4.490;2022-08-01T06:03:44;21.00;99.90
41447;DHT22;27185;52.040;4.490;2022-08-01T06:06:30;21.00;99.90
41447;DHT22;27185;52.040;4.490;2022-08-01T06:09:15;21.00;99.90
41447;DHT22;27185;52.040;4.490;2022-08-01T06:12:01;20.90;99.90
41447;DHT22;27185;52.040;4.490;2022-08-01T06:14:47;20.90;99.90
41447;DHT22;27185;52.040;4.490;2022-08-01T06:17:32;20.90;99.90
41447;DHT22;27185;52.040;4.490;2022-08-01T06:20:18;20.90;99.90
41447;DHT22;27185;52.040;4.490;2022-08-01T06:23:04;20.80;99.90
41447;DHT22;27185;52.040;4.490;2022-08-01T06:25:53;20.80;99.90
41447;DHT22;27185;52.040;4.490;2022-08-01T06:28:39;20.80;99.90
41447;DHT22;27185;52.040;4.490;2022-08-01T06:31:25;20.80;99.90
41447;DHT22;27185;52.040;4.490;2022-08-01T06:34:11;20.80;99.90
41447;DHT22;27185;52.040;4.490;2022-08-01T06:36:56;20.80;99.90
41447;DHT22;27185;52.040;4.490;2022-08-01T06:39:43;20.80;99.90
41447;DHT22;27185;52.040;4.490;2022-08-01T06:42:29;20.80;99.90
41447;DHT22;27185;52.040;4.490;2022-08-01T06:45:17;20.90;99.90
41447;DHT22;27185;52.040;4.490;2022-08-01T06:48:03;20.90;99.90
41447;DHT22;27185;52.040;4.490;2022-08-01T06:50:48;20.90;99.90
41447;DHT22;27185;52.040;4.490;2022-08-01T06:53:35;20.90;99.90
41447;DHT22;27185;52.040;4.490;2022-08-01T06:56:22;20.90;99.90
41447;DHT22;27185;52.040;4.490;2022-08-01T06:59:08;21.00;99.90
41447;DHT22;27185;52.040;4.490;2022-08-01T07:01:53;21.00;99.90
41447;DHT22;27185;52.040;4.490;2022-08-01T07:04:39;21.10;99.90
41447;DHT22;27185;52.040;4.490;2022-08-01T07:07:24;21.00;99.90
41447;DHT22;27185;52.040;4.490;2022-08-01T07:10:10;21.10;99.90
41447;DHT22;27185;52.040;4.490;2022-08-01T07:12:56;21.10;99.90
41447;DHT22;27185;52.040;4.490;2022-08-01T07:15:41;21.10;99.90
41447;DHT22;27185;52.040;4.490;2022-08-01T07:18:27;21.10;99.90
41447;DHT22;27185;52.040;4.490;2022-08-01T07:21:12;21.10;99.90
41447;DHT22;27185;52.040;4.490;2022-08-01T07:23:58;21.10;99.90
41447;DHT22;27185;52.040;4.490;2022-08-01T07:26:46;21.20;99.90
41447;DHT22;27185;52.040;4.490;2022-08-01T07:29:32;21.20;99.90
41447;DHT22;27185;52.040;4.490;2022-08-01T07:32:18;21.20;99.90
41447;DHT22;27185;52.040;4.490;2022-08-01T07:35:04;21.30;99.90
41447;DHT22;27185;52.040;4.490;2022-08-01T07:37:49;21.30;99.90
41447;DHT22;27185;52.040;4.490;2022-08-01T07:40:35;21.30;99.90
41447;DHT22;27185;52.040;4.490;2022-08-01T07:43:21;21.40;99.90
41447;DHT22;27185;52.040;4.490;2022-08-01T07:46:06;21.40;99.90
41447;DHT22;27185;52.040;4.490;2022-08-01T07:48:52;21.40;99.90
41447;DHT22;27185;52.040;4.490;2022-08-01T07:51:38;21.50;99.90
41447;DHT22;27185;52.040;4.490;2022-08-01T07:54:23;21.50;99.90
41447;DHT22;27185;52.040;4.490;2022-08-01T07:57:10;21.60;99.90
41447;DHT22;27185;52.040;4.490;2022-08-01T07:59:56;21.60;99.90
41447;DHT22;27185;52.040;4.490;2022-08-01T08:02:41;21.60;99.90
41447;DHT22;27185;52.040;4.490;2022-08-01T08:05:27;21.70;99.90
41447;DHT22;27185;52.040;4.490;2022-08-01T08:08:13;21.70;99.90
41447;DHT22;27185;52.040;4.490;2022-08-01T08:11:01;21.70;99.90
41447;DHT22;27185;52.040;4.490;2022-08-01T08:13:47;21.80;99.90
41447;DHT22;27185;52.040;4.490;2022-08-01T08:16:33;21.80;99.90
41447;DHT22;27185;52.040;4.490;2022-08-01T08:19:18;21.90;99.90
41447;DHT22;27185;52.040;4.490;2022-08-01T08:22:05;21.90;99.90
41447;DHT22;27185;52.040;4.490;2022-08-01T08:24:50;22.00;99.90
41447;DHT22;27185;52.040;4.490;2022-08-01T08:27:36;22.10;99.90
41447;DHT22;27185;52.040;4.490;2022-08-01T08:30:22;22.20;99.90
41447;DHT22;27185;52.040;4.490;2022-08-01T08:33:07;22.40;99.90
41447;DHT22;27185;52.040;4.490;2022-08-01T08:35:53;22.40;99.90
41447;DHT22;27185;52.040;4.490;2022-08-01T08:38:40;22.50;99.90
41447;DHT22;27185;52.040;4.490;2022-08-01T08:41:25;22.60;99.50
41447;DHT22;27185;52.040;4.490;2022-08-01T08:44:11;22.70;99.20
41447;DHT22;27185;52.040;4.490;2022-08-01T08:46:58;22.70;99.10
41447;DHT22;27185;52.040;4.490;2022-08-01T08:49:45;22.70;98.90
41447;DHT22;27185;52.040;4.490;2022-08-01T08:52:35;22.80;99.10
41447;DHT22;27185;52.040;4.490;2022-08-01T08:55:23;22.80;99.00
41447;DHT22;27185;52.040;4.490;2022-08-01T08:58:13;22.90;98.50
41447;DHT22;27185;52.040;4.490;2022-08-01T09:01:00;23.10;98.70
41447;DHT22;27185;52.040;4.490;2022-08-01T09:03:45;23.20;98.30
41447;DHT22;27185;52.040;4.490;2022-08-01T09:06:32;23.30;98.00
41447;DHT22;27185;52.040;4.490;2022-08-01T09:09:17;23.30;97.50
41447;DHT22;27185;52.040;4.490;2022-08-01T09:12:03;23.30;97.10
41447;DHT22;27185;52.040;4.490;2022-08-01T09:14:49;23.30;97.00
41447;DHT22;27185;52.040;4.490;2022-08-01T09:17:41;23.30;97.40
41447;DHT22;27185;52.040;4.490;2022-08-01T09:20:26;23.30;97.00
41447;DHT22;27185;52.040;4.490;2022-08-01T09:23:34;23.30;97.10
41447;DHT22;27185;52.040;4.490;2022-08-01T09:26:34;23.30;96.50
41447;DHT22;27185;52.040;4.490;2022-08-01T09:29:24;23.40;96.60
41447;DHT22;27185;52.040;4.490;2022-08-01T09:32:10;23.50;97.00
41447;DHT22;27185;52.040;4.490;2022-08-01T09:34:55;23.60;96.10
41447;DHT22;27185;52.040;4.490;2022-08-01T09:37:41;23.80;96.30
41447;DHT22;27185;52.040;4.490;2022-08-01T09:40:44;24.00;96.70
41447;DHT22;27185;52.040;4.490;2022-08-01T09:43:31;24.30;95.30
41447;DHT22;27185;52.040;4.490;2022-08-01T09:46:16;24.50;95.20
41447;DHT22;27185;52.040;4.490;2022-08-01T09:49:04;24.70;94.30
41447;DHT22;27185;52.040;4.490;2022-08-01T09:51:50;24.80;94.10
41447;DHT22;27185;52.040;4.490;2022-08-01T09:54:36;24.90;94.10
41447;DHT22;27185;52.040;4.490;2022-08-01T09:57:22;25.00;93.80
41447;DHT22;27185;52.040;4.490;2022-08-01T10:00:17;25.10;94.00
41447;DHT22;27185;52.040;4.490;2022-08-01T10:03:23;25.10;92.90
41447;DHT22;27185;52.040;4.490;2022-08-01T10:06:21;25.20;93.30
41447;DHT22;27185;52.040;4.490;2022-08-01T10:09:07;25.20;92.90
41447;DHT22;27185;52.040;4.490;2022-08-01T10:11:54;25.20;92.90
41447;DHT22;27185;52.040;4.490;2022-08-01T10:14:41;25.20;92.70
41447;DHT22;27185;52.040;4.490;2022-08-01T10:17:26;25.20;92.50
41447;DHT22;27185;52.040;4.490;2022-08-01T10:20:13;25.20;92.40
41447;DHT22;27185;52.040;4.490;2022-08-01T10:23:00;25.20;92.40
41447;DHT22;27185;52.040;4.490;2022-08-01T10:25:48;25.40;92.50
41447;DHT22;27185;52.040;4.490;2022-08-01T10:28:35;25.40;91.60
41447;DHT22;27185;52.040;4.490;2022-08-01T10:31:22;25.60;92.10
41447;DHT22;27185;52.040;4.490;2022-08-01T10:34:08;25.70;91.30
41447;DHT22;27185;52.040;4.490;2022-08-01T10:36:55;25.90;91.30
41447;DHT22;27185;52.040;4.490;2022-08-01T10:39:41;26.00;90.90
41447;DHT22;27185;52.040;4.490;2022-08-01T10:42:27;26.10;90.40
41447;DHT22;27185;52.040;4.490;2022-08-01T10:45:14;26.20;89.50
41447;DHT22;27185;52.040;4.490;2022-08-01T10:48:22;26.20;89.50
41447;DHT22;27185;52.040;4.490;2022-08-01T10:51:09;26.20;90.00
41447;DHT22;27185;52.040;4.490;2022-08-01T10:53:55;26.20;88.40
41447;DHT22;27185;52.040;4.490;2022-08-01T10:56:48;26.20;87.40
41447;DHT22;27185;52.040;4.490;2022-08-01T10:59:34;26.20;86.60
41447;DHT22;27185;52.040;4.490;2022-08-01T11:02:27;26.20;86.40
41447;DHT22;27185;52.040;4.490;2022-08-01T11:05:21;26.30;86.20
41447;DHT22;27185;52.040;4.490;2022-08-01T11:08:10;26.40;85.90
41447;DHT22;27185;52.040;4.490;2022-08-01T11:11:01;26.40;85.80
41447;DHT22;27185;52.040;4.490;2022-08-01T11:16:52;26.80;84.90
41447;DHT22;27185;52.040;4.490;2022-08-01T11:28:34;27.60;81.70
41447;DHT22;27185;52.040;4.490;2022-08-01T11:34:06;28.10;81.70
41447;DHT22;27185;52.040;4.490;2022-08-01T11:37:24;28.30;77.50
41447;DHT22;27185;52.040;4.490;2022-08-01T11:40:25;28.30;77.80
41447;DHT22;27185;52.040;4.490;2022-08-01T11:45:57;28.40;76.60
41447;DHT22;27185;52.040;4.490;2022-08-01T11:48:43;28.50;76.50
41447;DHT22;27185;52.040;4.490;2022-08-01T11:51:28;28.60;75.10
41447;DHT22;27185;52.040;4.490;2022-08-01T11:54:15;28.70;74.80
41447;DHT22;27185;52.040;4.490;2022-08-01T11:57:04;28.80;74.40
41447;DHT22;27185;52.040;4.490;2022-08-01T11:59:53;28.80;74.60
41447;DHT22;27185;52.040;4.490;2022-08-01T12:02:39;28.80;73.60
41447;DHT22;27185;52.040;4.490;2022-08-01T12:05:26;28.70;72.90
41447;DHT22;27185;52.040;4.490;2022-08-01T12:08:13;28.70;71.60
41447;DHT22;27185;52.040;4.490;2022-08-01T12:11:03;28.60;72.10
41447;DHT22;27185;52.040;4.490;2022-08-01T12:13:49;28.50;72.20
41447;DHT22;27185;52.040;4.490;2022-08-01T12:16:36;28.50;71.60
41447;DHT22;27185;52.040;4.490;2022-08-01T12:19:23;28.30;71.90
41447;DHT22;27185;52.040;4.490;2022-08-01T12:22:13;28.20;71.90
41447;DHT22;27185;52.040;4.490;2022-08-01T12:25:16;28.10;72.20
41447;DHT22;27185;52.040;4.490;2022-08-01T12:28:04;27.90;70.80
41447;DHT22;27185;52.040;4.490;2022-08-01T12:30:50;27.90;71.80
41447;DHT22;27185;52.040;4.490;2022-08-01T12:33:35;27.80;72.80
41447;DHT22;27185;52.040;4.490;2022-08-01T12:36:28;27.80;72.70
41447;DHT22;27185;52.040;4.490;2022-08-01T12:39:15;27.90;72.70
41447;DHT22;27185;52.040;4.490;2022-08-01T12:42:01;28.00;71.90
41447;DHT22;27185;52.040;4.490;2022-08-01T12:44:50;28.00;70.80
41447;DHT22;27185;52.040;4.490;2022-08-01T12:47:37;28.10;70.60
41447;DHT22;27185;52.040;4.490;2022-08-01T12:50:25;28.20;72.00
41447;DHT22;27185;52.040;4.490;2022-08-01T12:53:14;28.40;72.30
41447;DHT22;27185;52.040;4.490;2022-08-01T12:55:59;28.60;73.40
41447;DHT22;27185;52.040;4.490;2022-08-01T12:58:45;28.70;71.00
41447;DHT22;27185;52.040;4.490;2022-08-01T13:01:30;28.80;71.00
41447;DHT22;27185;52.040;4.490;2022-08-01T13:04:16;28.90;71.40
41447;DHT22;27185;52.040;4.490;2022-08-01T13:07:01;28.90;69.80
41447;DHT22;27185;52.040;4.490;2022-08-01T13:09:51;28.90;70.40
41447;DHT22;27185;52.040;4.490;2022-08-01T13:12:37;28.80;67.50
41447;DHT22;27185;52.040;4.490;2022-08-01T13:21:16;29.00;69.00
41447;DHT22;27185;52.040;4.490;2022-08-01T13:24:03;28.90;69.20
41447;DHT22;27185;52.040;4.490;2022-08-01T13:26:56;28.90;71.20
41447;DHT22;27185;52.040;4.490;2022-08-01T13:29:43;29.00;71.20
41447;DHT22;27185;52.040;4.490;2022-08-01T13:32:30;29.20;71.80
41447;DHT22;27185;52.040;4.490;2022-08-01T13:35:21;29.50;70.10
41447;DHT22;27185;52.040;4.490;2022-08-01T13:38:06;29.50;67.70
41447;DHT22;27185;52.040;4.490;2022-08-01T13:40:58;29.60;68.70
41447;DHT22;27185;52.040;4.490;2022-08-01T13:43:43;29.50;67.20
41447;DHT22;27185;52.040;4.490;2022-08-01T13:46:30;29.40;67.90
41447;DHT22;27185;52.040;4.490;2022-08-01T13:49:15;29.40;69.00
41447;DHT22;27185;52.040;4.490;2022-08-01T13:52:02;29.60;69.80
41447;DHT22;27185;52.040;4.490;2022-08-01T13:54:48;29.70;68.20
41447;DHT22;27185;52.040;4.490;2022-08-01T13:57:34;29.90;68.40
41447;DHT22;27185;52.040;4.490;2022-08-01T14:00:19;30.00;66.90
41447;DHT22;27185;52.040;4.490;2022-08-01T14:03:05;30.10;65.80
41447;DHT22;27185;52.040;4.490;2022-08-01T14:05:51;30.20;65.40
41447;DHT22;27185;52.040;4.490;2022-08-01T14:08:36;30.20;66.80
41447;DHT22;27185;52.040;4.490;2022-08-01T14:11:22;30.10;66.00
41447;DHT22;27185;52.040;4.490;2022-08-01T14:14:07;30.10;65.30
41447;DHT22;27185;52.040;4.490;2022-08-01T14:16:53;29.90;66.20
41447;DHT22;27185;52.040;4.490;2022-08-01T14:19:39;29.70;66.10
41447;DHT22;27185;52.040;4.490;2022-08-01T14:22:24;29.60;65.90
41447;DHT22;27185;52.040;4.490;2022-08-01T14:25:10;29.40;66.90
41447;DHT22;27185;52.040;4.490;2022-08-01T14:27:56;29.40;67.20
41447;DHT22;27185;52.040;4.490;2022-08-01T14:30:42;29.40;66.80
41447;DHT22;27185;52.040;4.490;2022-08-01T14:33:28;29.60;66.20
41447;DHT22;27185;52.040;4.490;2022-08-01T14:36:14;29.70;65.80
41447;DHT22;27185;52.040;4.490;2022-08-01T14:38:59;29.90;67.00
41447;DHT22;27185;52.040;4.490;2022-08-01T14:41:45;30.10;66.10
41447;DHT22;27185;52.040;4.490;2022-08-01T14:44:31;30.30;66.40
41447;DHT22;27185;52.040;4.490;2022-08-01T14:47:16;30.40;66.10
41447;DHT22;27185;52.040;4.490;2022-08-01T14:50:04;30.50;65.10
41447;DHT22;27185;52.040;4.490;2022-08-01T14:52:49;30.60;64.90
41447;DHT22;27185;52.040;4.490;2022-08-01T14:55:35;30.70;64.70
41447;DHT22;27185;52.040;4.490;2022-08-01T14:58:21;30.70;64.90
41447;DHT22;27185;52.040;4.490;2022-08-01T15:01:06;30.80;64.90
41447;DHT22;27185;52.040;4.490;2022-08-01T15:03:52;30.90;64.20
41447;DHT22;27185;52.040;4.490;2022-08-01T15:06:37;31.00;63.10
41447;DHT22;27185;52.040;4.490;2022-08-01T15:09:23;31.00;63.10
41447;DHT22;27185;52.040;4.490;2022-08-01T15:12:10;31.10;62.40
41447;DHT22;27185;52.040;4.490;2022-08-01T15:14:56;31.10;62.20
41447;DHT22;27185;52.040;4.490;2022-08-01T15:17:43;31.20;63.10
41447;DHT22;27185;52.040;4.490;2022-08-01T15:20:28;31.20;63.10
41447;DHT22;27185;52.040;4.490;2022-08-01T15:23:15;31.20;62.30
41447;DHT22;27185;52.040;4.490;2022-08-01T15:26:00;31.30;62.60
41447;DHT22;27185;52.040;4.490;2022-08-01T15:28:46;31.30;60.80
41447;DHT22;27185;52.040;4.490;2022-08-01T15:31:32;31.20;60.50
41447;DHT22;27185;52.040;4.490;2022-08-01T15:34:17;31.10;61.00
41447;DHT22;27185;52.040;4.490;2022-08-01T15:37:04;31.00;60.10
41447;DHT22;27185;52.040;4.490;2022-08-01T15:39:49;31.00;60.60
41447;DHT22;27185;52.040;4.490;2022-08-01T15:42:35;30.90;58.20
41447;DHT22;27185;52.040;4.490;2022-08-01T15:45:21;31.00;58.90
41447;DHT22;27185;52.040;4.490;2022-08-01T15:48:06;30.90;58.50
41447;DHT22;27185;52.040;4.490;2022-08-01T15:50:52;31.00;57.70
41447;DHT22;27185;52.040;4.490;2022-08-01T15:53:38;31.10;57.50
41447;DHT22;27185;52.040;4.490;2022-08-01T15:56:24;31.20;58.60
41447;DHT22;27185;52.040;4.490;2022-08-01T15:59:10;31.40;58.40
41447;DHT22;27185;52.040;4.490;2022-08-01T16:01:56;31.60;57.30
41447;DHT22;27185;52.040;4.490;2022-08-01T16:04:42;31.70;57.10
41447;DHT22;27185;52.040;4.490;2022-08-01T16:07:27;31.70;57.00
41447;DHT22;27185;52.040;4.490;2022-08-01T16:10:13;31.70;56.20
41447;DHT22;27185;52.040;4.490;2022-08-01T16:12:58;31.70;55.90
41447;DHT22;27185;52.040;4.490;2022-08-01T16:15:44;31.70;55.70
41447;DHT22;27185;52.040;4.490;2022-08-01T16:18:30;31.70;55.10
41447;DHT22;27185;52.040;4.490;2022-08-01T16:21:16;31.80;55.70
41447;DHT22;27185;52.040;4.490;2022-08-01T16:24:01;31.90;54.90
41447;DHT22;27185;52.040;4.490;2022-08-01T16:26:47;32.00;56.30
41447;DHT22;27185;52.040;4.490;2022-08-01T16:29:33;32.20;56.40
41447;DHT22;27185;52.040;4.490;2022-08-01T16:32:19;32.30;54.50
41447;DHT22;27185;52.040;4.490;2022-08-01T16:35:06;32.30;54.40
41447;DHT22;27185;52.040;4.490;2022-08-01T16:37:51;32.20;53.60
41447;DHT22;27185;52.040;4.490;2022-08-01T16:40:37;32.20;54.00
41447;DHT22;27185;52.040;4.490;2022-08-01T16:43:25;32.20;54.60
41447;DHT22;27185;52.040;4.490;2022-08-01T16:46:13;32.30;54.80
41447;DHT22;27185;52.040;4.490;2022-08-01T16:48:59;32.40;54.20
41447;DHT22;27185;52.040;4.490;2022-08-01T16:51:44;32.50;54.60
41447;DHT22;27185;52.040;4.490;2022-08-01T16:54:30;32.50;52.30
41447;DHT22;27185;52.040;4.490;2022-08-01T16:57:16;32.50;52.70
41447;DHT22;27185;52.040;4.490;2022-08-01T17:00:09;32.50;53.40
41447;DHT22;27185;52.040;4.490;2022-08-01T17:02:55;32.50;52.60
41447;DHT22;27185;52.040;4.490;2022-08-01T17:05:41;32.50;52.90
41447;DHT22;27185;52.040;4.490;2022-08-01T17:08:27;32.60;53.80
41447;DHT22;27185;52.040;4.490;2022-08-01T17:11:13;32.60;53.30
41447;DHT22;27185;52.040;4.490;2022-08-01T17:13:59;32.60;52.90
41447;DHT22;27185;52.040;4.490;2022-08-01T17:16:44;32.60;52.40
41447;DHT22;27185;52.040;4.490;2022-08-01T17:19:30;32.50;52.70
41447;DHT22;27185;52.040;4.490;2022-08-01T17:22:17;32.40;52.80
41447;DHT22;27185;52.040;4.490;2022-08-01T17:25:02;32.40;52.70
41447;DHT22;27185;52.040;4.490;2022-08-01T17:27:48;32.50;53.00
41447;DHT22;27185;52.040;4.490;2022-08-01T17:30:36;32.50;52.60
41447;DHT22;27185;52.040;4.490;2022-08-01T17:33:24;32.50;52.60
41447;DHT22;27185;52.040;4.490;2022-08-01T17:36:09;32.50;52.70
41447;DHT22;27185;52.040;4.490;2022-08-01T17:38:56;32.40;51.80
41447;DHT22;27185;52.040;4.490;2022-08-01T17:41:43;32.40;51.70
41447;DHT22;27185;52.040;4.490;2022-08-01T17:44:28;32.20;51.20
41447;DHT22;27185;52.040;4.490;2022-08-01T17:47:14;32.10;51.50
41447;DHT22;27185;52.040;4.490;2022-08-01T17:50:00;31.90;51.20
41447;DHT22;27185;52.040;4.490;2022-08-01T17:52:48;31.60;51.00
41447;DHT22;27185;52.040;4.490;2022-08-01T17:55:33;31.20;51.30
41447;DHT22;27185;52.040;4.490;2022-08-01T17:58:19;30.90;51.40
41447;DHT22;27185;52.040;4.490;2022-08-01T18:01:04;30.50;51.60
41447;DHT22;27185;52.040;4.490;2022-08-01T18:03:50;30.10;52.00